Time;durP1;ratioP1;P1;durP2;ratioP2;P2;SDS_P1;SDS_P2;PMS_P1;PMS_P2;Temp;Humidity;BMP_temperature;BMP_pressure;BME280_temperature;BME280_humidity;BME280_pressure;Samples;Min_cycle;Max_cycle;Signal;HPM_P1;HPM_P2
2022/09/22 00:01:47;;;;;;;3.77;2.47;;;7.20;99.90;;;;;;5055810;28;20625;-79
2022/09/22 00:04:14;;;;;;;3.90;2.53;;;6.90;99.90;;;;;;5056662;28;20580;-79
2022/09/22 00:06:46;;;;;;;5.23;2.43;;;7.10;99.90;;;;;;5056439;28;20219;-79
2022/09/22 00:09:15;;;;;;;3.17;2.60;;;7.50;99.90;;;;;;5055615;28;20227;-79
2022/09/22 00:11:44;;;;;;;7.03;3.30;;;7.60;99.90;;;;;;5055228;28;20191;-79
2022/09/22 00:14:13;;;;;;;3.80;2.80;;;7.50;99.90;;;;;;5054571;28;20215;-79
2022/09/22 00:16:43;;;;;;;6.00;3.17;;;7.60;99.90;;;;;;5054772;28;20226;-79
2022/09/22 00:19:12;;;;;;;3.80;2.50;;;7.50;99.90;;;;;;5052489;28;20219;-79
2022/09/22 00:21:39;;;;;;;3.87;2.77;;;7.10;99.90;;;;;;5053576;28;20203;-79
2022/09/22 00:24:07;;;;;;;3.00;2.40;;;7.20;99.90;;;;;;5053413;28;20565;-79
2022/09/22 00:26:35;;;;;;;7.53;3.10;;;7.30;99.90;;;;;;5055450;28;20215;-79
2022/09/22 00:29:06;;;;;;;7.10;2.80;;;7.40;99.90;;;;;;5059004;28;20225;-79
2022/09/22 00:31:33;;;;;;;4.10;3.20;;;7.30;99.90;;;;;;5059853;28;20214;-79
2022/09/22 00:34:00;;;;;;;5.93;3.10;;;7.30;99.90;;;;;;5060561;28;20207;-80
2022/09/22 00:36:28;;;;;;;6.50;3.20;;;7.40;99.90;;;;;;5059409;28;20265;-79
2022/09/22 00:38:56;;;;;;;5.47;2.97;;;7.50;99.90;;;;;;5052904;28;20247;-79
2022/09/22 00:41:26;;;;;;;4.70;3.03;;;7.40;99.90;;;;;;5053241;28;20281;-79
2022/09/22 00:44:26;;;;;;;4.00;3.07;;;7.50;99.90;;;;;;5060704;28;20203;-79
2022/09/22 00:46:59;;;;;;;6.30;3.37;;;7.40;99.90;;;;;;5060038;28;20219;-79
2022/09/22 00:49:32;;;;;;;7.27;3.50;;;7.30;99.90;;;;;;5059442;28;20221;-79
2022/09/22 00:51:59;;;;;;;4.77;3.17;;;7.40;99.90;;;;;;5059707;28;20199;-79
2022/09/22 00:54:27;;;;;;;5.57;3.20;;;7.30;99.90;;;;;;5060029;28;20644;-80
2022/09/22 00:57:03;;;;;;;3.80;2.73;;;7.30;99.90;;;;;;5059305;28;20293;-79
2022/09/22 00:59:30;;;;;;;5.33;3.27;;;7.40;99.90;;;;;;5059414;28;20229;-80
2022/09/22 01:01:58;;;;;;;10.20;3.20;;;7.40;99.90;;;;;;5059376;28;20213;-79
2022/09/22 01:04:25;;;;;;;3.83;2.90;;;7.30;99.90;;;;;;5058488;28;20206;-79
2022/09/22 01:06:54;;;;;;;5.87;3.23;;;7.20;99.90;;;;;;5059378;28;20256;-80
2022/09/22 01:09:21;;;;;;;3.73;2.80;;;7.10;99.90;;;;;;5059055;28;20199;-80
2022/09/22 01:11:47;;;;;;;5.30;3.27;;;7.10;99.90;;;;;;5057710;28;20211;-80
2022/09/22 01:14:27;;;;;;;3.77;2.80;;;7.00;99.90;;;;;;5056970;28;20207;-79
2022/09/22 01:17:04;;;;;;;5.13;3.20;;;7.00;99.90;;;;;;5054322;28;20227;-79
2022/09/22 01:20:15;;;;;;;5.63;3.60;;;7.10;99.90;;;;;;5059026;28;20694;-79
2022/09/22 01:23:14;;;;;;;3.67;2.70;;;7.20;99.90;;;;;;5048167;28;20318;-79
2022/09/22 01:26:15;;;;;;;5.77;3.10;;;7.10;99.90;;;;;;5058520;28;20223;-79
2022/09/22 01:29:05;;;;;;;4.00;3.23;;;7.10;99.90;;;;;;5003630;28;20264;-79
2022/09/22 01:31:39;;;;;;;5.73;3.17;;;7.20;99.90;;;;;;5057296;28;20203;-79
2022/09/22 01:34:10;;;;;;;5.67;2.97;;;7.10;99.90;;;;;;5057803;28;20223;-79
2022/09/22 01:36:46;;;;;;;6.00;3.10;;;7.20;99.90;;;;;;5058503;28;20233;-78
2022/09/22 01:39:16;;;;;;;6.63;2.87;;;7.20;99.90;;;;;;5058833;28;20222;-79
2022/09/22 01:41:51;;;;;;;5.17;2.97;;;7.20;99.90;;;;;;5059331;28;20230;-79
2022/09/22 01:44:24;;;;;;;4.73;3.13;;;7.10;99.90;;;;;;5058427;28;20263;-80
2022/09/22 01:46:56;;;;;;;4.83;2.83;;;7.10;99.90;;;;;;5058659;28;20715;-79
2022/09/22 01:49:26;;;;;;;4.10;3.27;;;7.10;99.90;;;;;;5057841;28;20207;-79
2022/09/22 01:51:56;;;;;;;5.83;3.60;;;7.10;99.90;;;;;;5058734;28;20309;-79
2022/09/22 01:54:28;;;;;;;3.63;2.80;;;7.20;99.90;;;;;;5059569;28;20203;-79
2022/09/22 01:57:00;;;;;;;4.63;3.03;;;7.20;99.90;;;;;;5057390;28;20225;-79
2022/09/22 01:59:30;;;;;;;6.33;3.40;;;7.20;99.90;;;;;;5054599;28;20627;-79
2022/09/22 02:02:03;;;;;;;7.13;3.40;;;7.20;99.90;;;;;;5054566;28;20207;-80
2022/09/22 02:04:35;;;;;;;4.83;3.30;;;7.20;99.90;;;;;;5051495;28;20230;-79
2022/09/22 02:07:05;;;;;;;4.23;2.87;;;7.10;99.90;;;;;;5053558;28;20667;-79
2022/09/22 02:09:33;;;;;;;3.13;2.47;;;7.20;99.90;;;;;;5042511;28;20204;-79
2022/09/22 02:12:02;;;;;;;5.07;2.97;;;7.10;99.90;;;;;;5057673;28;20199;-79
2022/09/22 02:14:30;;;;;;;5.80;2.73;;;7.10;99.90;;;;;;5059418;28;20211;-79
2022/09/22 02:17:00;;;;;;;3.87;2.40;;;6.90;99.90;;;;;;5057316;28;20211;-79
2022/09/22 02:19:32;;;;;;;4.67;3.07;;;6.90;99.90;;;;;;5058335;28;20314;-79
2022/09/22 02:21:59;;;;;;;2.90;2.60;;;6.80;99.90;;;;;;5058338;28;20209;-79
2022/09/22 02:24:28;;;;;;;5.40;2.50;;;6.80;99.90;;;;;;5057946;28;20217;-80
2022/09/22 02:26:56;;;;;;;4.93;3.00;;;6.90;99.90;;;;;;5058094;28;20203;-79
2022/09/22 02:29:24;;;;;;;3.97;2.27;;;6.70;99.90;;;;;;5058307;28;20569;-79
2022/09/22 02:31:52;;;;;;;6.70;3.00;;;6.70;99.90;;;;;;5058189;28;20290;-79
2022/09/22 02:34:21;;;;;;;4.73;2.37;;;6.70;99.90;;;;;;5057930;28;20724;-79
2022/09/22 02:36:56;;;;;;;6.10;2.80;;;6.50;99.90;;;;;;5057593;28;20286;-79
2022/09/22 02:39:29;;;;;;;4.07;2.63;;;6.60;99.90;;;;;;5056627;28;20264;-80
2022/09/22 02:42:15;;;;;;;4.60;2.70;;;6.40;99.90;;;;;;5057307;28;20199;-79
2022/09/22 02:44:48;;;;;;;5.80;3.10;;;6.40;99.90;;;;;;5058064;28;20266;-80
2022/09/22 02:47:19;;;;;;;4.67;3.43;;;6.50;99.90;;;;;;5056696;28;20290;-80
2022/09/22 02:49:49;;;;;;;3.90;2.70;;;6.20;99.90;;;;;;5056086;28;20233;-79
2022/09/22 02:52:19;;;;;;;5.83;2.83;;;6.10;99.90;;;;;;5056789;28;20278;-80
2022/09/22 02:54:46;;;;;;;3.87;2.70;;;6.00;99.90;;;;;;5057057;28;20196;-79
2022/09/22 02:57:13;;;;;;;4.87;3.20;;;6.20;99.90;;;;;;5051651;28;20249;-79
2022/09/22 02:59:40;;;;;;;6.13;2.47;;;6.10;99.90;;;;;;5060998;28;20586;-79
2022/09/22 03:02:07;;;;;;;4.07;2.93;;;6.10;99.90;;;;;;5059661;28;20199;-80
2022/09/22 03:04:34;;;;;;;7.03;2.80;;;6.00;99.90;;;;;;5059726;28;20215;-80
2022/09/22 03:07:02;;;;;;;5.40;2.93;;;6.00;99.90;;;;;;5060439;28;20211;-79
2022/09/22 03:09:29;;;;;;;5.00;2.80;;;6.10;99.90;;;;;;5059811;28;20564;-79
2022/09/22 03:11:55;;;;;;;5.17;2.83;;;6.20;99.90;;;;;;5059486;28;20277;-79
2022/09/22 03:14:22;;;;;;;4.93;2.70;;;6.30;99.90;;;;;;5058302;28;20605;-79
2022/09/22 03:16:49;;;;;;;3.93;2.73;;;6.30;99.90;;;;;;5057915;28;20258;-79
2022/09/22 03:19:16;;;;;;;5.20;3.03;;;6.30;99.90;;;;;;5057399;28;20288;-79
2022/09/22 03:21:43;;;;;;;4.13;2.83;;;6.30;99.90;;;;;;5058747;28;20290;-79
2022/09/22 03:24:11;;;;;;;6.70;3.60;;;6.40;99.90;;;;;;5058878;28;20213;-79
2022/09/22 03:26:38;;;;;;;4.50;3.03;;;6.50;99.90;;;;;;5058208;28;20230;-80
2022/09/22 03:29:05;;;;;;;5.30;3.13;;;6.60;99.90;;;;;;5057450;28;20207;-78
2022/09/22 03:31:31;;;;;;;4.00;3.10;;;6.60;99.90;;;;;;5057254;28;20675;-79
2022/09/22 03:33:58;;;;;;;3.60;3.30;;;6.60;99.90;;;;;;5057102;28;20703;-79
2022/09/22 03:36:25;;;;;;;4.37;3.27;;;6.60;99.90;;;;;;5055748;28;20219;-79
2022/09/22 03:38:52;;;;;;;6.63;3.03;;;6.70;99.90;;;;;;5049294;28;20575;-78
2022/09/22 03:41:20;;;;;;;13.77;5.30;;;6.60;99.90;;;;;;5047766;28;20229;-78
2022/09/22 03:43:47;;;;;;;7.03;3.23;;;6.60;99.90;;;;;;5056111;28;20274;-78
2022/09/22 03:46:14;;;;;;;7.43;3.60;;;6.60;99.90;;;;;;5055752;28;20223;-79
2022/09/22 03:48:41;;;;;;;5.47;3.40;;;6.60;99.90;;;;;;5054928;28;20623;-79
2022/09/22 03:51:08;;;;;;;6.33;3.07;;;6.70;99.90;;;;;;5054261;28;20249;-79
2022/09/22 03:53:35;;;;;;;6.20;3.43;;;6.60;99.90;;;;;;5054399;28;20203;-79
2022/09/22 03:56:07;;;;;;;3.20;2.70;;;6.60;99.90;;;;;;5058294;28;20234;-79
2022/09/22 03:58:36;;;;;;;6.67;3.17;;;6.70;99.90;;;;;;5061171;28;20334;-79
2022/09/22 04:01:03;;;;;;;5.77;3.27;;;6.60;99.90;;;;;;5060626;28;20230;-79
2022/09/22 04:03:30;;;;;;;5.87;2.60;;;6.60;99.90;;;;;;5060963;28;20206;-79
2022/09/22 04:05:57;;;;;;;3.70;3.00;;;6.50;99.90;;;;;;5053053;28;20224;-80
2022/09/22 04:08:24;;;;;;;3.50;2.80;;;6.50;99.90;;;;;;5048736;28;20226;-79
2022/09/22 04:10:51;;;;;;;4.90;2.70;;;6.50;99.90;;;;;;5059696;28;20211;-79
2022/09/22 04:13:18;;;;;;;4.53;2.70;;;6.40;99.90;;;;;;5061137;28;20245;-80
2022/09/22 04:15:46;;;;;;;4.07;2.90;;;6.40;99.90;;;;;;5060548;28;20594;-79
2022/09/22 04:18:14;;;;;;;6.03;3.00;;;6.20;99.90;;;;;;5060900;28;20650;-80
2022/09/22 04:20:43;;;;;;;3.77;2.90;;;6.30;99.90;;;;;;5060642;28;20635;-80
2022/09/22 04:23:10;;;;;;;3.63;2.73;;;6.40;99.90;;;;;;5057592;28;20576;-79
2022/09/22 04:25:37;;;;;;;4.57;3.33;;;6.50;99.90;;;;;;5060120;28;20629;-79
2022/09/22 04:28:04;;;;;;;8.63;2.80;;;6.40;99.90;;;;;;5060847;28;20298;-79
2022/09/22 04:30:31;;;;;;;5.97;2.90;;;6.40;99.90;;;;;;5060545;28;20202;-80
2022/09/22 04:33:00;;;;;;;5.77;3.00;;;6.40;99.90;;;;;;5060742;28;20210;-79
2022/09/22 04:35:27;;;;;;;5.90;2.97;;;6.30;99.90;;;;;;5060186;28;20227;-79
2022/09/22 04:37:55;;;;;;;4.03;2.73;;;6.20;99.90;;;;;;5043893;28;20198;-79
2022/09/22 04:40:22;;;;;;;4.77;3.37;;;6.20;99.90;;;;;;5060708;28;20262;-79
2022/09/22 04:42:49;;;;;;;3.87;2.50;;;6.20;99.90;;;;;;5060380;28;20381;-80
2022/09/22 04:45:17;;;;;;;5.13;3.00;;;6.20;99.90;;;;;;5059973;28;20266;-79
2022/09/22 04:47:45;;;;;;;4.30;2.60;;;6.20;99.90;;;;;;5060861;28;20659;-80
2022/09/22 04:50:13;;;;;;;6.53;2.83;;;6.10;99.90;;;;;;5060854;28;20222;-79
2022/09/22 04:52:42;;;;;;;4.13;2.43;;;6.10;99.90;;;;;;5060440;28;20203;-80
2022/09/22 04:55:10;;;;;;;4.27;2.70;;;6.10;99.90;;;;;;5060169;28;20516;-79
2022/09/22 04:57:36;;;;;;;3.60;2.80;;;6.10;99.90;;;;;;5059571;28;20233;-79
2022/09/22 05:00:05;;;;;;;5.47;2.67;;;6.20;99.90;;;;;;5059408;28;20354;-79
2022/09/22 05:02:32;;;;;;;5.03;2.83;;;6.20;99.90;;;;;;5060723;28;20574;-80
2022/09/22 05:04:58;;;;;;;3.83;2.50;;;6.10;99.90;;;;;;5059560;28;20257;-79
2022/09/22 05:07:27;;;;;;;6.03;2.80;;;6.00;99.90;;;;;;5051740;28;20286;-79
2022/09/22 05:09:54;;;;;;;5.90;3.30;;;6.10;99.90;;;;;;5054414;28;20207;-79
2022/09/22 05:12:20;;;;;;;5.63;3.00;;;6.20;99.90;;;;;;5055175;28;20203;-79
2022/09/22 05:14:47;;;;;;;5.53;3.20;;;6.20;99.90;;;;;;5059592;28;20245;-80
2022/09/22 05:17:14;;;;;;;5.33;3.03;;;6.20;99.90;;;;;;5059433;28;20579;-79
2022/09/22 05:19:41;;;;;;;6.20;3.30;;;6.30;99.90;;;;;;5060187;28;20210;-79
2022/09/22 05:22:09;;;;;;;5.47;3.10;;;6.20;99.90;;;;;;5058130;28;20209;-79
2022/09/22 05:24:37;;;;;;;4.67;2.87;;;6.20;99.90;;;;;;5060195;28;20213;-79
2022/09/22 05:27:04;;;;;;;4.73;3.17;;;6.20;99.90;;;;;;5059476;28;20631;-79
2022/09/22 05:29:31;;;;;;;4.30;3.03;;;6.20;99.90;;;;;;5059320;28;20214;-79
2022/09/22 05:31:58;;;;;;;4.10;2.90;;;6.20;99.90;;;;;;5059630;28;20233;-79
2022/09/22 05:34:25;;;;;;;6.17;3.17;;;6.10;99.90;;;;;;5058771;28;20572;-79
2022/09/22 05:36:52;;;;;;;4.97;3.00;;;6.20;99.90;;;;;;5059685;28;20494;-79
2022/09/22 05:39:20;;;;;;;5.93;2.80;;;6.20;99.90;;;;;;5060318;28;20213;-79
2022/09/22 05:41:48;;;;;;;4.77;2.70;;;6.20;99.90;;;;;;5059833;28;20230;-79
2022/09/22 05:44:15;;;;;;;6.77;3.03;;;6.20;99.90;;;;;;5058844;28;20206;-80
2022/09/22 05:46:42;;;;;;;3.67;3.03;;;6.20;99.90;;;;;;5059114;28;20215;-79
2022/09/22 05:49:09;;;;;;;3.93;3.23;;;6.30;99.90;;;;;;5058682;28;20225;-79
2022/09/22 05:51:36;;;;;;;5.20;3.17;;;6.40;99.90;;;;;;5050307;28;20567;-80
2022/09/22 05:54:03;;;;;;;4.00;2.90;;;6.30;99.90;;;;;;5045571;28;20214;-80
2022/09/22 05:56:31;;;;;;;6.37;3.77;;;6.30;99.90;;;;;;5053390;28;20239;-80
2022/09/22 05:58:59;;;;;;;5.33;3.80;;;6.50;99.90;;;;;;5058487;28;20205;-80
2022/09/22 06:01:26;;;;;;;6.33;3.50;;;6.40;99.90;;;;;;5056733;28;20222;-79
2022/09/22 06:03:53;;;;;;;5.97;3.77;;;6.50;99.90;;;;;;5048372;28;20719;-79
2022/09/22 06:06:19;;;;;;;6.20;3.67;;;6.40;99.90;;;;;;5051644;28;20242;-80
2022/09/22 06:08:46;;;;;;;8.67;3.70;;;6.60;99.90;;;;;;5041917;28;20283;-79
2022/09/22 06:11:13;;;;;;;6.27;3.57;;;6.60;99.90;;;;;;5053590;28;20685;-78
2022/09/22 06:13:40;;;;;;;7.20;4.17;;;6.50;99.90;;;;;;5058623;28;20345;-79
2022/09/22 06:16:08;;;;;;;7.00;4.03;;;6.60;99.90;;;;;;5057777;28;20317;-79
2022/09/22 06:18:35;;;;;;;6.70;4.30;;;6.60;99.90;;;;;;5058115;28;20238;-79
2022/09/22 06:21:02;;;;;;;9.43;4.70;;;6.90;99.90;;;;;;5057237;28;20221;-79
2022/09/22 06:23:28;;;;;;;6.47;4.33;;;6.80;99.90;;;;;;5049505;28;20205;-79
2022/09/22 06:25:59;;;;;;;7.63;3.90;;;6.90;99.90;;;;;;5053809;28;20227;-79
2022/09/22 06:28:26;;;;;;;8.13;4.50;;;6.80;99.90;;;;;;5054886;28;20225;-79
2022/09/22 06:30:52;;;;;;;7.80;4.50;;;6.80;99.90;;;;;;5057710;28;20203;-78
2022/09/22 06:33:22;;;;;;;6.63;4.00;;;6.80;99.90;;;;;;5058269;28;20222;-79
2022/09/22 06:35:49;;;;;;;6.57;4.50;;;6.80;99.90;;;;;;5061196;28;20234;-79
2022/09/22 06:38:16;;;;;;;9.63;4.87;;;7.00;99.90;;;;;;5061101;28;20257;-79
2022/09/22 06:40:43;;;;;;;7.90;4.00;;;7.10;99.90;;;;;;5061058;28;20305;-79
2022/09/22 06:43:16;;;;;;;7.90;4.50;;;7.20;99.90;;;;;;5054772;28;20621;-79
2022/09/22 06:45:42;;;;;;;4.43;3.83;;;7.20;99.90;;;;;;5056997;28;20234;-79
2022/09/22 06:48:10;;;;;;;6.37;3.87;;;7.30;99.90;;;;;;5054644;28;20281;-79
2022/09/22 06:50:39;;;;;;;8.00;4.50;;;7.40;99.90;;;;;;5059189;28;20266;-79
2022/09/22 06:53:10;;;;;;;7.20;3.90;;;7.40;99.90;;;;;;5059898;28;20237;-80
2022/09/22 06:55:37;;;;;;;6.10;4.40;;;7.50;99.90;;;;;;5058915;28;20241;-79
2022/09/22 06:58:03;;;;;;;8.07;5.00;;;7.60;99.90;;;;;;5059610;28;20245;-79
2022/09/22 07:00:31;;;;;;;7.47;4.10;;;7.70;99.90;;;;;;5058654;28;20346;-79
2022/09/22 07:03:04;;;;;;;6.40;4.10;;;7.80;99.90;;;;;;5058417;28;20187;-79
2022/09/22 07:05:30;;;;;;;5.07;3.60;;;7.90;99.90;;;;;;5057174;28;20231;-78
2022/09/22 07:07:59;;;;;;;9.03;4.17;;;7.90;99.90;;;;;;5049530;28;20210;-78
2022/09/22 07:10:25;;;;;;;7.57;4.60;;;8.00;99.90;;;;;;5048302;28;20267;-79
2022/09/22 07:12:53;;;;;;;8.57;4.40;;;8.10;99.90;;;;;;5057159;28;20285;-79
2022/09/22 07:15:20;;;;;;;7.70;4.67;;;8.20;99.90;;;;;;5057161;28;20258;-79
2022/09/22 07:17:51;;;;;;;7.93;4.50;;;8.10;99.90;;;;;;5055798;28;20670;-79
2022/09/22 07:20:19;;;;;;;8.20;4.50;;;8.20;99.90;;;;;;5054374;28;20235;-79
2022/09/22 07:22:46;;;;;;;7.60;4.53;;;8.40;99.90;;;;;;5055169;28;20245;-79
2022/09/22 07:25:15;;;;;;;9.03;4.87;;;8.30;99.90;;;;;;5055620;28;20237;-79
2022/09/22 07:27:42;;;;;;;7.27;3.90;;;8.70;99.90;;;;;;5057444;28;20211;-80
2022/09/22 07:30:09;;;;;;;7.30;4.47;;;8.80;99.90;;;;;;5061756;28;20206;-80
2022/09/22 07:32:36;;;;;;;7.43;4.20;;;9.00;99.90;;;;;;5060583;28;20272;-80
2022/09/22 07:35:03;;;;;;;9.87;4.43;;;9.60;99.90;;;;;;5062631;28;20587;-80
2022/09/22 07:37:32;;;;;;;7.70;4.40;;;10.20;99.90;;;;;;5062721;28;20211;-79
2022/09/22 07:39:59;;;;;;;6.43;3.73;;;10.40;99.90;;;;;;5063234;28;20425;-79
2022/09/22 07:42:27;;;;;;;6.37;4.17;;;10.40;99.90;;;;;;5062987;28;20231;-80
2022/09/22 07:50:22;;;;;;;7.43;4.43;;;10.60;99.90;;;;;;5063448;28;20198;-79
2022/09/22 07:52:51;;;;;;;7.17;4.30;;;10.40;99.90;;;;;;5063287;28;20211;-80
2022/09/22 07:55:21;;;;;;;6.87;4.77;;;10.50;99.90;;;;;;5062732;28;20242;-79
2022/09/22 07:57:55;;;;;;;8.17;4.20;;;10.30;99.90;;;;;;5055251;28;20445;-79
2022/09/22 08:00:22;;;;;;;7.20;4.20;;;10.50;99.90;;;;;;5061828;28;20208;-79
2022/09/22 08:02:53;;;;;;;6.93;3.90;;;10.50;99.90;;;;;;5053973;28;20309;-79
2022/09/22 08:05:20;;;;;;;5.37;4.17;;;10.90;99.90;;;;;;5062076;28;20235;-79
2022/09/22 08:07:46;;;;;;;7.87;3.80;;;11.00;99.90;;;;;;5061630;28;20226;-80
2022/09/22 08:10:14;;;;;;;5.37;3.77;;;10.80;99.90;;;;;;5061983;28;20206;-80
2022/09/22 08:12:42;;;;;;;8.63;3.80;;;10.80;99.90;;;;;;5063228;28;20722;-79
2022/09/22 08:15:12;;;;;;;6.67;4.00;;;10.80;99.90;;;;;;5063149;28;20230;-79
2022/09/22 08:17:39;;;;;;;5.23;3.70;;;10.90;99.90;;;;;;5062347;28;20223;-79
2022/09/22 08:20:07;;;;;;;5.23;3.40;;;10.90;99.90;;;;;;5062727;28;20222;-80
2022/09/22 08:22:34;;;;;;;7.07;3.83;;;11.00;99.90;;;;;;5062457;28;20241;-79
2022/09/22 08:25:01;;;;;;;6.80;3.80;;;11.00;99.90;;;;;;5062203;28;20294;-79
2022/09/22 08:27:29;;;;;;;5.73;3.40;;;11.10;99.90;;;;;;5062638;28;20203;-80
2022/09/22 08:29:56;;;;;;;7.30;3.57;;;11.20;99.90;;;;;;5063345;28;20211;-79
2022/09/22 08:32:25;;;;;;;5.67;3.30;;;11.40;99.90;;;;;;5062391;28;20222;-79
2022/09/22 08:34:56;;;;;;;10.83;3.87;;;11.40;99.90;;;;;;5061029;28;20609;-79
2022/09/22 08:37:25;;;;;;;11.27;4.03;;;11.50;99.90;;;;;;5062125;28;20207;-79
2022/09/22 08:39:52;;;;;;;7.37;3.70;;;11.50;99.90;;;;;;5053685;28;20203;-80
2022/09/22 08:42:21;;;;;;;8.40;3.57;;;11.70;99.90;;;;;;5060592;28;20575;-79
2022/09/22 08:44:56;;;;;;;8.03;3.37;;;11.80;99.90;;;;;;5062095;28;20265;-79
2022/09/22 08:53:15;;;;;;;3.73;3.20;;;12.40;99.90;;;;;;5062150;28;20178;-79
2022/09/22 08:55:47;;;;;;;9.07;3.70;;;12.50;99.90;;;;;;5062865;28;20247;-79
2022/09/22 08:58:33;;;;;;;6.30;3.60;;;12.50;99.90;;;;;;5061476;28;20207;-79
2022/09/22 09:01:09;;;;;;;7.83;3.33;;;13.00;99.90;;;;;;5060525;28;20198;-79
2022/09/22 09:03:56;;;;;;;7.37;3.10;;;13.10;1.00;;;;;;5062001;28;20616;-80
2022/09/22 09:06:34;;;;;;;9.33;3.53;;;13.20;1.00;;;;;;5061724;28;20312;-79
2022/09/22 09:09:12;;;;;;;7.50;3.47;;;13.50;99.90;;;;;;5059591;28;20297;-79
2022/09/22 09:11:59;;;;;;;11.80;4.03;;;13.80;99.90;;;;;;5060546;28;20565;-79
2022/09/22 09:14:44;;;;;;;7.83;3.10;;;14.30;1.00;;;;;;5061030;28;20203;-79
2022/09/22 09:17:13;;;;;;;8.33;3.47;;;14.60;1.00;;;;;;5065058;28;20297;-79
2022/09/22 09:19:44;;;;;;;5.63;3.17;;;15.00;1.00;;;;;;5061563;28;20262;-79
2022/09/22 09:22:17;;;;;;;7.87;2.90;;;15.30;99.90;;;;;;5063043;28;20230;-80
2022/09/22 09:24:49;;;;;;;6.57;3.03;;;15.70;1.00;;;;;;5062647;28;20215;-80
2022/09/22 09:27:20;;;;;;;6.10;2.42;;;15.90;99.90;;;;;;5061982;28;20298;-79
2022/09/22 09:30:00;;;;;;;5.93;2.47;;;15.70;1.00;;;;;;5062250;28;20203;-80
2022/09/22 09:32:33;;;;;;;8.43;3.35;;;16.10;1.00;;;;;;5061592;28;20205;-79
2022/09/22 09:35:02;;;;;;;5.25;2.50;;;16.60;1.00;;;;;;5061598;28;20226;-80
2022/09/22 09:37:30;;;;;;;6.75;2.67;;;17.00;99.90;;;;;;5061076;28;20685;-80
2022/09/22 09:40:01;;;;;;;5.38;2.30;;;16.80;19.80;;;;;;5056121;28;20267;-80
2022/09/22 09:42:32;;;;;;;4.78;2.05;;;16.70;1.00;;;;;;5058431;28;20227;-80
2022/09/22 09:45:01;;;;;;;4.75;2.38;;;16.70;1.00;;;;;;5056781;28;20590;-80
2022/09/22 09:47:58;;;;;;;7.40;2.60;;;17.30;99.90;;;;;;5060023;28;20210;-80
2022/09/22 09:50:30;;;;;;;5.55;2.05;;;17.30;1.00;;;;;;5060503;28;20230;-80
2022/09/22 09:52:58;;;;;;;4.57;2.33;;;17.20;1.00;;;;;;5060304;28;20227;-80
2022/09/22 09:55:25;;;;;;;7.32;2.55;;;17.20;99.90;;;;;;5058532;28;20226;-80
2022/09/22 09:58:10;;;;;;;5.97;2.50;;;16.70;1.00;;;;;;5059515;28;20301;-80
2022/09/22 10:00:55;;;;;;;4.53;2.15;;;16.50;1.00;;;;;;5050687;28;20702;-80
2022/09/22 10:03:28;;;;;;;5.07;2.00;;;16.70;1.00;;;;;;5049492;28;20246;-80
2022/09/22 10:05:59;;;;;;;4.25;1.98;;;15.90;99.90;;;;;;5056841;28;20638;-80
2022/09/22 10:08:27;;;;;;;4.38;2.05;;;15.60;1.00;;;;;;5053771;28;20202;-79
2022/09/22 10:11:00;;;;;;;4.72;2.00;;;16.00;1.00;;;;;;5055311;28;20202;-80
2022/09/22 10:13:33;;;;;;;6.05;2.15;;;15.70;1.00;;;;;;5063558;28;20206;-81
2022/09/22 10:16:06;;;;;;;8.43;3.90;;;16.20;99.90;;;;;;5063827;28;20230;-79
2022/09/22 10:18:36;;;;;;;5.32;1.80;;;16.10;1.00;;;;;;5062882;28;20670;-79
2022/09/22 10:21:13;;;;;;;4.40;2.35;;;15.50;99.90;;;;;;5060819;28;20202;-79
2022/09/22 10:23:41;;;;;;;4.03;1.90;;;15.60;58.00;;;;;;5060406;28;20199;-79
2022/09/22 10:26:19;;;;;;;4.38;1.60;;;15.60;1.00;;;;;;5060932;28;20230;-79
2022/09/22 10:29:05;;;;;;;7.82;1.70;;;15.40;1.00;;;;;;5061292;28;20206;-79
2022/09/22 10:31:37;;;;;;;4.45;1.95;;;15.70;1.00;;;;;;5059863;28;20655;-80
2022/09/22 10:34:05;;;;;;;2.35;1.70;;;15.90;99.90;;;;;;5057804;28;20301;-80
2022/09/22 10:36:35;;;;;;;6.55;3.40;;;16.00;1.00;;;;;;5058827;28;20235;-80
2022/09/22 10:39:10;;;;;;;3.08;2.03;;;16.00;99.90;;;;;;5056963;28;20218;-80
2022/09/22 10:41:38;;;;;;;7.82;2.15;;;16.00;1.00;;;;;;5052070;28;20237;-80
2022/09/22 10:44:13;;;;;;;5.50;1.63;;;16.10;99.90;;;;;;5066414;28;20209;-80
2022/09/22 10:46:57;;;;;;;5.65;1.50;;;16.10;99.90;;;;;;5068926;28;20761;-80
2022/09/22 10:49:39;;;;;;;6.10;1.67;;;16.00;99.90;;;;;;5069232;28;20203;-80
2022/09/22 10:52:17;;;;;;;3.78;1.65;;;16.20;1.00;;;;;;5067997;28;20571;-80
2022/09/22 10:55:07;;;;;;;3.83;1.52;;;16.50;1.00;;;;;;5065865;28;20211;-80
2022/09/22 10:57:51;;;;;;;4.60;2.00;;;16.30;1.00;;;;;;5068252;28;20649;-80
2022/09/22 11:00:20;;;;;;;5.50;1.42;;;15.90;40.00;;;;;;5068637;28;20209;-80
2022/09/22 11:03:23;;;;;;;5.43;1.73;;;15.90;99.90;;;;;;5069342;28;20232;-80
2022/09/22 11:14:59;;;;;;;2.63;1.60;;;16.10;1.00;;;;;;5045610;28;20563;-79
2022/09/22 11:17:43;;;;;;;5.53;1.58;;;16.20;1.00;;;;;;5065434;28;20217;-79
2022/09/22 11:20:31;;;;;;;6.20;1.60;;;16.60;1.00;;;;;;5063012;28;20214;-79
2022/09/22 11:23:44;;;;;;;2.30;1.63;;;16.70;1.00;;;;;;5062300;28;20249;-79
2022/09/22 11:26:29;;;;;;;5.28;1.25;;;16.90;1.00;;;;;;5043108;28;20251;-79
2022/09/22 11:29:19;;;;;;;4.45;1.67;;;16.90;99.90;;;;;;5056755;28;20203;-80
2022/09/22 11:31:49;;;;;;;4.03;1.38;;;17.00;99.90;;;;;;5054987;28;20207;-80
2022/09/22 11:34:32;;;;;;;3.03;1.10;;;17.30;99.90;;;;;;5056512;28;20245;-80
2022/09/22 11:40:02;;;;;;;3.85;1.50;;;16.90;1.00;;;;;;5060427;28;20195;-80
2022/09/22 11:42:40;;;;;;;5.00;1.80;;;16.70;99.90;;;;;;5055246;28;20235;-80
2022/09/22 11:45:21;;;;;;;2.15;1.48;;;17.30;99.90;;;;;;5053086;28;20294;-80
2022/09/22 11:48:00;;;;;;;2.40;1.48;;;17.50;99.90;;;;;;5065486;28;20281;-81
2022/09/22 11:50:42;;;;;;;2.88;1.52;;;17.80;99.90;;;;;;5062894;28;20210;-80
2022/09/22 11:53:26;;;;;;;4.07;1.40;;;18.40;99.90;;;;;;5064003;28;20746;-81
2022/09/22 11:56:15;;;;;;;1.50;1.23;;;18.40;12.80;;;;;;5063905;28;20241;-81
2022/09/22 11:58:45;;;;;;;3.85;1.33;;;18.70;1.00;;;;;;5064136;28;20217;-80
2022/09/22 12:01:14;;;;;;;2.65;1.63;;;18.10;1.00;;;;;;5063482;28;20688;-80
2022/09/22 12:03:47;;;;;;;1.83;1.20;;;18.10;13.00;;;;;;5061297;28;20227;-82
2022/09/22 12:06:17;;;;;;;2.67;1.08;;;18.60;1.00;;;;;;5056069;28;20710;-81
2022/09/22 12:08:48;;;;;;;3.22;1.13;;;18.90;1.00;;;;;;5060059;28;20226;-81
2022/09/22 12:11:19;;;;;;;2.38;1.25;;;19.20;1.00;;;;;;5060295;28;20206;-82
2022/09/22 12:13:49;;;;;;;3.45;1.00;;;18.90;1.00;;;;;;5062803;28;20206;-81
2022/09/22 12:16:22;;;;;;;7.60;1.50;;;18.80;1.00;;;;;;5050038;28;20227;-81
2022/09/22 12:18:54;;;;;;;2.58;1.00;;;18.70;1.00;;;;;;5056145;28;20199;-81
2022/09/22 12:21:37;;;;;;;2.50;0.90;;;18.60;1.00;;;;;;5062871;28;20210;-81
2022/09/22 12:24:08;;;;;;;3.08;1.23;;;18.30;1.00;;;;;;5061831;28;20226;-80
2022/09/22 12:26:37;;;;;;;2.97;1.30;;;18.30;1.00;;;;;;5062557;28;20309;-80
2022/09/22 12:29:22;;;;;;;1.40;0.95;;;18.30;1.00;;;;;;5061179;28;20210;-82
2022/09/22 12:31:51;;;;;;;1.45;1.33;;;18.00;1.00;;;;;;5054247;28;20210;-82
2022/09/22 12:34:20;;;;;;;3.35;0.90;;;18.10;1.00;;;;;;5050869;28;20259;-81
2022/09/22 12:36:50;;;;;;;2.00;1.05;;;18.00;1.00;;;;;;5048992;28;20310;-81
2022/09/22 12:39:19;;;;;;;1.90;1.10;;;17.60;1.00;;;;;;5058372;28;20199;-81
2022/09/22 12:41:48;;;;;;;2.42;1.00;;;17.50;1.00;;;;;;5058325;28;20212;-80
2022/09/22 12:44:22;;;;;;;2.88;1.00;;;17.30;1.00;;;;;;5055304;28;20203;-82
2022/09/22 12:46:50;;;;;;;3.83;1.55;;;17.40;1.00;;;;;;5058985;28;20237;-81
2022/09/22 12:49:20;;;;;;;3.53;1.10;;;17.60;1.00;;;;;;5062615;28;20205;-81
2022/09/22 12:51:47;;;;;;;2.80;1.23;;;17.50;1.00;;;;;;5051292;28;20210;-80
2022/09/22 12:54:50;;;;;;;4.28;1.30;;;17.50;1.00;;;;;;5059933;28;20199;-81
2022/09/22 12:57:44;;;;;;;3.50;1.23;;;17.40;1.00;;;;;;5059993;28;20218;-80
2022/09/22 13:00:28;;;;;;;2.75;1.20;;;17.40;1.00;;;;;;5058811;28;20201;-80
2022/09/22 13:02:56;;;;;;;4.10;1.20;;;17.50;1.00;;;;;;5058660;28;20219;-80
2022/09/22 13:05:41;;;;;;;3.53;1.20;;;17.60;84.10;;;;;;5058945;28;20280;-80
2022/09/22 13:08:22;;;;;;;4.35;1.35;;;18.00;1.00;;;;;;5042609;28;20218;-81
2022/09/22 13:10:58;;;;;;;1.23;0.80;;;18.50;1.00;;;;;;5056125;28;20211;-80
2022/09/22 13:13:45;;;;;;;1.17;0.73;;;18.60;1.00;;;;;;5055037;28;20731;-80
2022/09/22 13:16:37;;;;;;;2.25;1.23;;;18.20;1.00;;;;;;5054129;28;20226;-80
2022/09/22 13:19:09;;;;;;;1.40;0.88;;;17.80;1.00;;;;;;5022819;28;20295;-80
2022/09/22 13:21:40;;;;;;;4.05;1.30;;;17.60;1.00;;;;;;5055313;28;20199;-81
2022/09/22 13:24:18;;;;;;;3.67;1.48;;;17.80;1.00;;;;;;5062956;28;20714;-80
2022/09/22 13:26:45;;;;;;;2.67;1.60;;;18.00;1.00;;;;;;5063879;28;20231;-81
2022/09/22 13:29:13;;;;;;;1.63;0.88;;;18.50;1.00;;;;;;5062641;28;20195;-81
2022/09/22 13:31:43;;;;;;;2.35;1.38;;;18.50;1.00;;;;;;5056025;28;20207;-81
2022/09/22 13:34:28;;;;;;;4.03;1.27;;;18.60;1.00;;;;;;5049105;28;20624;-81
2022/09/22 13:36:59;;;;;;;3.55;1.10;;;18.60;1.00;;;;;;5050716;28;20265;-80
2022/09/22 13:39:29;;;;;;;1.55;0.85;;;18.90;1.00;;;;;;5055889;28;20199;-81
2022/09/22 13:42:03;;;;;;;2.45;1.20;;;18.70;1.00;;;;;;5059984;28;20209;-80